Resums METAR propers

 

LELL - Sabadell, Spain
DistÓncia des de l'estaciˇ: E 18km
Actualitzaciˇ: 21/02/2018 02:30
Mist, Molt cobert
Mist, Molt cobert
 Vent del calm
Vent: Calma
Temperatura: 7°C
Rosada: 6°C
Humitat: 93%
Bar˛metre: 1008 hPa
Resum: Mist
Nuvolositat: N˙vols i clarianes
Visibilitat: 5 km
Detalls nuvolositat: N˙vols i clarianes 610 m
2018/02/21 01:30 LELL 210130Z AUTO 00000KT 4600 BR BKN020/// 07/06 Q1008
LEBL - Barcelona Airpor, Spain
DistÓncia des de l'estaciˇ: SSE 33km
Actualitzaciˇ: 21/02/2018 02:30
Alguns n˙vols
Alguns n˙vols
 Vent del NNO
Vent: NNO 15 km/h
Temperatura: 9°C
Sensaciˇ: 7°C
Rosada: 7°C
Humitat: 87%
Bar˛metre: 1008 hPa
Nuvolositat: Alguns n˙vols
Visibilitat: 6 km
Detalls nuvolositat: Alguns n˙vols 610 m
2018/02/21 01:30 LEBL 210130Z 33008KT 6000 FEW020 09/07 Q1008 NOSIG
LERS - Reus (civ/Mil), Spain
DistÓncia des de l'estaciˇ: SO 75km
Actualitzaciˇ: 21/02/2018 02:30
SerÚ
SerÚ
 Vent del O
Vent: O 30 km/h
Temperatura: 10°C
Sensaciˇ: 7°C
Rosada: 4°C
Humitat: 67%
Bar˛metre: 1009 hPa
Nuvolositat: SerÚ
Visibilitat: 10 km
2018/02/21 01:30 LERS 210130Z AUTO 28016KT 9999 NCD 10/04 Q1009
 
LEGE - Gerona/Costa Bra, Spain
DistÓncia des de l'estaciˇ: ENE 83km
Actualitzaciˇ: 21/02/2018 02:30
Mist, Molt cobert
Mist, Molt cobert
 Vent del NE
Vent: NE 6 km/h
Temperatura: 7°C
Rosada: 7°C
Humitat: 100%
Bar˛metre: 1008 hPa
Resum: Mist
Nuvolositat: N˙vols i clarianes
Visibilitat: 5 km
Detalls nuvolositat: N˙vols i clarianes 823 m
2018/02/21 01:30 LEGE 210130Z 05003KT 5000 BR BKN027 07/07 Q1008
LFMP - Perpignan/Rivesa, France
DistÓncia des de l'estaciˇ: NNE 155km
Actualitzaciˇ: 21/02/2018 02:30
Parcialment cobert
Parcialment cobert
 Vent del NO
Vent: NO 28 km/h
Temperatura: 10°C
Sensaciˇ: 7°C
Rosada: 4°C
Humitat: 67%
Bar˛metre: 1009 hPa
Nuvolositat: Parcialment cobert
Visibilitat: 10 km
Detalls nuvolositat: Parcialment cobert 1006 m
2018/02/21 01:30 LFMP 210130Z AUTO 32015KT 290V350 9999 SCT033 10/04 Q1009
LFMK - Carcassonne/Salv, France
DistÓncia des de l'estaciˇ: N 191km
Actualitzaciˇ: 21/02/2018 02:30
N˙vols i clarianes
N˙vols i clarianes
 Vent del ONO
Vent: ONO 20 km/h
Temperatura: 8°C
Sensaciˇ: 4°C
Rosada: 5°C
Humitat: 82%
Bar˛metre: 1011 hPa
Nuvolositat: N˙vols i clarianes
Visibilitat: 10 km
Detalls nuvolositat: Alguns n˙vols 792 m
N˙vols i clarianes 1036 m
N˙vols i clarianes 3658 m
2018/02/21 01:30 LFMK 210130Z AUTO 29011KT 9999 FEW026 BKN034 BKN120 08/05 Q1011
 
LEHC - Huesca-Pirineos, Spain
DistÓncia des de l'estaciˇ: ONO 193km
Actualitzaciˇ: 21/02/2018 02:30
SerÚ
SerÚ
 Vent del ONO
Vent: ONO 31 km/h
Temperatura: 7°C
Sensaciˇ: 3°C
Rosada: 1°C
Humitat: 66%
Bar˛metre: 1008 hPa
Resum: SerÚ
Visibilitat: major de 10 km
2018/02/21 01:30 LEHC 210130Z AUTO 29017KT CAVOK 07/01 Q1008
LFMU - Beziers/Vias, France
DistÓncia des de l'estaciˇ: NNE 232km
Actualitzaciˇ: 21/02/2018 02:30
SerÚ
SerÚ
 Vent del N
Vent: N 17 km/h
Temperatura: 7°C
Sensaciˇ: 4°C
Rosada: 0°C
Humitat: 61%
Bar˛metre: 1010 hPa
Resum: SerÚ
Visibilitat: major de 10 km
2018/02/21 01:30 LFMU 210130Z AUTO 35009KT CAVOK 07/00 Q1010
LEPA - Palma De Mallorc, Spain
DistÓncia des de l'estaciˇ: SSE 233km
Actualitzaciˇ: 21/02/2018 02:30
N˙vols i clarianes
N˙vols i clarianes
 Vent del ENE
Vent: ENE 13 km/h
Temperatura: 12°C
Rosada: 9°C
Humitat: 82%
Bar˛metre: 1009 hPa
Nuvolositat: N˙vols i clarianes
Visibilitat: 10 km
Detalls nuvolositat: Alguns n˙vols 610 m
Parcialment cobert 914 m
N˙vols i clarianes 1219 m
2018/02/21 01:30 LEPA 210130Z 07007KT 040V100 9999 FEW020 SCT030 BKN040 12/09 Q1009 NOSIG
 
LFBO - Toulouse/Blagnac, France
DistÓncia des de l'estaciˇ: N 236km
Actualitzaciˇ: 21/02/2018 02:30
Pluja dŔbil, Molt cobert
Pluja dŔbil, Molt cobert
 Vent del NO
Vent: NO 17 km/h
Temperatura: 8°C
Sensaciˇ: 5°C
Rosada: 7°C
Humitat: 93%
Bar˛metre: 1013 hPa
Resum: Pluja dŔbil
Nuvolositat: N˙vols i clarianes
Visibilitat: 10 km
Detalls nuvolositat: Parcialment cobert 366 m
Parcialment cobert 732 m
N˙vols i clarianes 1158 m
2018/02/21 01:30 LFBO 210130Z AUTO 31009KT 9999 -RA SCT012 SCT024 BKN038 08/07 Q1013 NOSIG
LFBT - Tarbes/Ossun, France
DistÓncia des de l'estaciˇ: NO 239km
Actualitzaciˇ: 21/02/2018 02:30
Pluja dŔbil, Thunderstorm
Pluja dŔbil, Thunderstorm
 Vent del NO
Vent: NO 15 km/h
Temperatura: 6°C
Sensaciˇ: 3°C
Rosada: 6°C
Humitat: 100%
Bar˛metre: 1014 hPa
Resum: Pluja dŔbil
Nuvolositat: Thunderstorm
Visibilitat: 7 km
Detalls nuvolositat: N˙vols i clarianes 335 m
N˙vols i clarianes 549 m
Tapat 732 m
2018/02/21 01:30 LFBT 210130Z AUTO 31008KT 7000 -RA BKN011/// BKN018/// OVC024/// ///CB 06/06 Q1014 TEMPO 4000 -RA OVC005
LEZG - Zaragoza (mil/Ci, Spain
DistÓncia des de l'estaciˇ: O 242km
Actualitzaciˇ: 21/02/2018 02:30
N˙vols i clarianes
N˙vols i clarianes
 Vent del ONO
Vent: ONO 35 km/h, RÓfega: 54 km/h
Temperatura: 9°C
Sensaciˇ: 5°C
Rosada: 4°C
Humitat: 71%
Bar˛metre: 1012 hPa
Nuvolositat: N˙vols i clarianes
Visibilitat: 10 km
Detalls nuvolositat: Alguns n˙vols 1219 m
N˙vols i clarianes 1372 m
2018/02/21 01:30 LEZG 210130Z 29019G29KT 9999 FEW040 BKN045 09/04 Q1012